Time;durP1;ratioP1;P1;durP2;ratioP2;P2;SDS_P1;SDS_P2;PMS_P1;PMS_P2;Temp;Humidity;BMP_temperature;BMP_pressure;BME280_temperature;BME280_humidity;BME280_pressure;Samples;Min_cycle;Max_cycle;Signal;HPM_P1;HPM_P2
2022/01/27 00:04:37;;;;;;;;;;;-3.30;99.90;;;;;;4157112;28;19987;-55
2022/01/27 00:06:39;;;;;;;;;;;-3.40;99.90;;;;;;4156982;28;19917;-53
2022/01/27 00:12:43;;;;;;;;;;;-3.40;99.90;;;;;;4141762;28;19917;-61
2022/01/27 00:14:47;;;;;;;;;;;-3.40;99.90;;;;;;4152053;28;19913;-56
2022/01/27 00:16:55;;;;;;;;;;;-3.40;99.90;;;;;;4158410;28;20032;-57
2022/01/27 00:18:57;;;;;;;;;;;-3.40;99.90;;;;;;4156655;28;21417;-59
2022/01/27 00:20:58;;;;;;;;;;;-3.40;99.90;;;;;;4157967;28;19917;-58
2022/01/27 00:22:59;;;;;;;;;;;-3.40;99.90;;;;;;4155748;28;20377;-61
2022/01/27 00:25:02;;;;;;;;;;;-3.40;99.90;;;;;;4157945;28;19943;-56
2022/01/27 00:27:03;;;;;;;;;;;-3.40;99.90;;;;;;4156986;28;19913;-57
2022/01/27 00:29:04;;;;;;;;;;;-3.40;99.90;;;;;;4156996;28;19959;-58
2022/01/27 00:31:05;;;;;;;;;;;-3.40;99.90;;;;;;4156452;28;20408;-55
2022/01/27 00:33:07;;;;;;;;;;;-3.40;99.90;;;;;;4158240;28;20003;-57
2022/01/27 00:35:09;;;;;;;;;;;-3.40;99.90;;;;;;4156644;28;19975;-53
2022/01/27 00:37:09;;;;;;;;;;;-3.40;99.90;;;;;;4157503;28;19917;-56
2022/01/27 00:39:10;;;;;;;;;;;-3.40;99.90;;;;;;4156681;28;19913;-55
2022/01/27 00:41:13;;;;;;;;;;;-3.40;99.90;;;;;;4157427;28;19920;-58
2022/01/27 00:43:14;;;;;;;;;;;-3.40;99.90;;;;;;4157010;28;19975;-58
2022/01/27 00:45:15;;;;;;;;;;;-3.40;99.90;;;;;;4156230;28;20331;-52
2022/01/27 00:47:16;;;;;;;;;;;-3.30;99.90;;;;;;4157998;28;19929;-56
2022/01/27 00:49:17;;;;;;;;;;;-3.40;99.90;;;;;;4156410;28;19917;-57
2022/01/27 00:51:21;;;;;;;;;;;-3.40;99.90;;;;;;4157922;28;19983;-55
2022/01/27 00:53:43;;;;;;;;;;;-3.40;99.90;;;;;;4156718;28;19917;-58
2022/01/27 00:55:44;;;;;;;;;;;-3.40;99.90;;;;;;4157398;28;19938;-57
2022/01/27 00:59:59;;;;;;;;;;;-3.40;99.90;;;;;;4157569;28;20362;-54
2022/01/27 01:04:05;;;;;;;;;;;-3.30;99.90;;;;;;4157994;28;19921;-59
2022/01/27 01:15:17;;;;;;;;;;;-3.30;99.90;;;;;;4159735;28;19971;-51
2022/01/27 01:21:48;;;;;;;;;;;-3.40;99.90;;;;;;4160134;28;19921;-59
2022/01/27 01:30:48;;;;;;;;;;;-3.40;99.90;;;;;;4160218;28;19987;-56
2022/01/27 01:32:55;;;;;;;;;;;-3.40;99.90;;;;;;4159682;28;20432;-56
2022/01/27 01:34:58;;;;;;;;;;;-3.40;99.90;;;;;;4159247;28;19959;-56
2022/01/27 01:37:05;;;;;;;;;;;-3.40;99.90;;;;;;4159058;28;20427;-59
2022/01/27 01:39:06;;;;;;;;;;;-3.40;99.90;;;;;;4160059;28;19959;-53
2022/01/27 01:41:07;;;;;;;;;;;-3.40;99.90;;;;;;4158808;28;19913;-57
2022/01/27 01:43:08;;;;;;;;;;;-3.40;99.90;;;;;;4159881;28;19917;-59
2022/01/27 01:45:10;;;;;;;;;;;-3.30;99.90;;;;;;4158356;28;19921;-57
2022/01/27 01:47:11;;;;;;;;;;;-3.30;99.90;;;;;;4159908;28;19975;-57
2022/01/27 01:49:12;;;;;;;;;;;-3.30;99.90;;;;;;4158556;28;19939;-59
2022/01/27 01:51:17;;;;;;;;;;;-3.30;99.90;;;;;;4159829;28;19917;-53
2022/01/27 01:53:18;;;;;;;;;;;-3.30;99.90;;;;;;4158335;28;19916;-60
2022/01/27 01:55:19;;;;;;;;;;;-3.30;99.90;;;;;;4160116;28;20633;-55
2022/01/27 01:57:20;;;;;;;;;;;-3.20;99.90;;;;;;4158734;28;19913;-60
2022/01/27 01:59:21;;;;;;;;;;;-3.20;99.90;;;;;;4159116;28;19917;-57
2022/01/27 02:01:22;;;;;;;;;;;-3.20;99.90;;;;;;4158389;28;20369;-55
2022/01/27 02:03:23;;;;;;;;;;;-3.20;99.90;;;;;;4159335;28;19921;-57
2022/01/27 02:05:29;;;;;;;;;;;-3.20;99.90;;;;;;4158906;28;20377;-57
2022/01/27 02:07:40;;;;;;;;;;;-3.20;99.90;;;;;;4159196;28;19963;-59
2022/01/27 02:10:08;;;;;;;;;;;-3.20;99.90;;;;;;4158701;28;19940;-54
2022/01/27 02:19:19;;;;;;;;;;;-3.30;99.90;;;;;;4157415;28;20011;-51
2022/01/27 02:21:20;;;;;;;;;;;-3.20;99.90;;;;;;4159878;28;19913;-56
2022/01/27 02:23:21;;;;;;;;;;;-3.20;99.90;;;;;;4158010;28;19917;-50
2022/01/27 02:25:22;;;;;;;;;;;-3.20;99.90;;;;;;4159789;28;20463;-57
2022/01/27 02:27:23;;;;;;;;;;;-3.20;99.90;;;;;;4157891;28;20366;-58
2022/01/27 02:29:25;;;;;;;;;;;-3.20;99.90;;;;;;4158686;28;20720;-57
2022/01/27 02:31:26;;;;;;;;;;;-3.20;99.90;;;;;;4157520;28;19963;-56
2022/01/27 02:33:33;;;;;;;;;;;-3.20;99.90;;;;;;4158026;28;19913;-55
2022/01/27 02:35:34;;;;;;;;;;;-3.20;99.90;;;;;;4158695;28;19967;-58
2022/01/27 02:37:35;;;;;;;;;;;-3.20;99.90;;;;;;4158374;28;20003;-55
2022/01/27 02:39:36;;;;;;;;;;;-3.20;99.90;;;;;;4159181;28;19913;-54
2022/01/27 02:42:00;;;;;;;;;;;-3.20;99.90;;;;;;4157920;28;19982;-56
2022/01/27 02:44:02;;;;;;;;;;;-3.20;99.90;;;;;;4147435;28;19975;-55
2022/01/27 02:46:08;;;;;;;;;;;-3.20;99.90;;;;;;4158115;28;19917;-56
2022/01/27 02:48:11;;;;;;;;;;;-3.20;99.90;;;;;;4159331;28;19971;-56
2022/01/27 02:50:12;;;;;;;;;;;-3.20;99.90;;;;;;4157471;28;19963;-54
2022/01/27 02:52:13;;;;;;;;;;;-3.20;99.90;;;;;;4159182;28;19921;-56
2022/01/27 02:54:14;;;;;;;;;;;-3.20;99.90;;;;;;4157943;28;19913;-65
2022/01/27 02:56:15;;;;;;;;;;;-3.20;99.90;;;;;;4159258;28;19920;-63
2022/01/27 02:58:16;;;;;;;;;;;-3.20;99.90;;;;;;4158164;28;19913;-64
2022/01/27 03:00:17;;;;;;;;;;;-3.20;99.90;;;;;;4158305;28;19963;-63
2022/01/27 03:02:19;;;;;;;;;;;-3.30;99.90;;;;;;4157436;28;19913;-66
2022/01/27 03:04:20;;;;;;;;;;;-3.30;99.90;;;;;;4158641;28;19925;-57
2022/01/27 03:06:21;;;;;;;;;;;-3.30;99.90;;;;;;4157075;28;19971;-62
2022/01/27 03:08:22;;;;;;;;;;;-3.30;99.90;;;;;;4158502;28;19913;-59
2022/01/27 03:10:26;;;;;;;;;;;-3.30;99.90;;;;;;4153367;28;20299;-65
2022/01/27 03:12:29;;;;;;;;;;;-3.30;99.90;;;;;;4141883;28;19918;-53
2022/01/27 03:14:31;;;;;;;;;;;-3.30;99.90;;;;;;4141978;28;20386;-54
2022/01/27 03:16:31;;;;;;;;;;;-3.30;99.90;;;;;;4140986;28;19918;-55
2022/01/27 03:18:32;;;;;;;;;;;-3.20;99.90;;;;;;4142381;28;20464;-55
2022/01/27 03:20:34;;;;;;;;;;;-3.30;99.90;;;;;;4147075;28;19924;-59
2022/01/27 03:22:35;;;;;;;;;;;-3.30;99.90;;;;;;4158840;28;19967;-54
2022/01/27 03:24:37;;;;;;;;;;;-3.30;99.90;;;;;;4139181;28;19925;-53
2022/01/27 03:26:38;;;;;;;;;;;-3.30;99.90;;;;;;4158264;28;20043;-56
2022/01/27 03:28:39;;;;;;;;;;;-3.30;99.90;;;;;;4156962;28;20361;-57
2022/01/27 03:30:40;;;;;;;;;;;-3.20;99.90;;;;;;4158114;28;19949;-57
2022/01/27 03:32:41;;;;;;;;;;;-3.20;99.90;;;;;;4155948;28;19913;-56
2022/01/27 03:34:42;;;;;;;;;;;-3.20;99.90;;;;;;4158199;28;20751;-54
2022/01/27 03:36:43;;;;;;;;;;;-3.20;99.90;;;;;;4157089;28;19913;-55
2022/01/27 03:38:44;;;;;;;;;;;-3.20;99.90;;;;;;4158228;28;20019;-57
2022/01/27 03:40:45;;;;;;;;;;;-3.30;99.90;;;;;;4156881;28;19913;-54
2022/01/27 03:43:01;;;;;;;;;;;-3.30;99.90;;;;;;4139670;28;19968;-57
2022/01/27 03:45:02;;;;;;;;;;;-3.30;99.90;;;;;;4156970;28;19971;-56
2022/01/27 03:47:03;;;;;;;;;;;-3.30;99.90;;;;;;4157096;28;19929;-55
2022/01/27 03:49:03;;;;;;;;;;;-3.30;99.90;;;;;;4157851;28;19963;-55
2022/01/27 03:51:04;;;;;;;;;;;-3.30;99.90;;;;;;4157074;28;19917;-57
2022/01/27 03:53:05;;;;;;;;;;;-3.30;99.90;;;;;;4158103;28;19959;-60
2022/01/27 03:55:07;;;;;;;;;;;-3.30;99.90;;;;;;4156627;28;19913;-56
2022/01/27 03:57:08;;;;;;;;;;;-3.30;99.90;;;;;;4158038;28;19913;-57
2022/01/27 03:59:09;;;;;;;;;;;-3.40;99.90;;;;;;4156181;28;19936;-57
2022/01/27 04:01:10;;;;;;;;;;;-3.40;99.90;;;;;;4158069;28;19917;-62
2022/01/27 04:03:14;;;;;;;;;;;-3.40;99.90;;;;;;4156234;28;19948;-57
2022/01/27 04:05:15;;;;;;;;;;;-3.50;99.90;;;;;;4158415;28;19991;-56
2022/01/27 04:07:16;;;;;;;;;;;-3.50;99.90;;;;;;4156399;28;19917;-58
2022/01/27 04:09:17;;;;;;;;;;;-3.50;99.90;;;;;;4157324;28;19920;-54
2022/01/27 04:11:17;;;;;;;;;;;-3.50;99.90;;;;;;4144495;28;19914;-59
2022/01/27 04:13:18;;;;;;;;;;;-3.50;99.90;;;;;;4141427;28;19924;-54
2022/01/27 04:15:19;;;;;;;;;;;-3.50;99.90;;;;;;4140573;28;19914;-58
2022/01/27 04:17:20;;;;;;;;;;;-3.50;99.90;;;;;;4140545;28;19921;-55
2022/01/27 04:19:21;;;;;;;;;;;-3.50;99.90;;;;;;4141573;28;19913;-56
2022/01/27 04:21:22;;;;;;;;;;;-3.50;99.90;;;;;;4149176;28;20600;-56
2022/01/27 04:23:23;;;;;;;;;;;-3.50;99.90;;;;;;4157781;28;19913;-58
2022/01/27 04:25:24;;;;;;;;;;;-3.50;99.90;;;;;;4156051;28;19932;-56
2022/01/27 04:27:30;;;;;;;;;;;-3.50;99.90;;;;;;4162111;28;20449;-60
2022/01/27 04:29:35;;;;;;;;;;;-3.60;99.90;;;;;;4172821;28;20002;-57
2022/01/27 04:31:39;;;;;;;;;;;-3.60;99.90;;;;;;4161242;28;19943;-61
2022/01/27 04:33:40;;;;;;;;;;;-3.60;99.90;;;;;;4156336;28;20274;-58
2022/01/27 04:35:47;;;;;;;;;;;-3.60;99.90;;;;;;4158075;28;20368;-55
2022/01/27 04:37:59;;;;;;;;;;;-3.50;99.90;;;;;;4156773;28;19916;-53
2022/01/27 04:40:12;;;;;;;;;;;-3.50;99.90;;;;;;4158039;28;19913;-57
2022/01/27 04:42:24;;;;;;;;;;;-3.50;99.90;;;;;;4154009;28;20441;-59
2022/01/27 04:44:38;;;;;;;;;;;-3.50;99.90;;;;;;4160394;28;19952;-61
2022/01/27 04:48:48;;;;;;;;;;;-3.50;99.90;;;;;;4162414;28;20361;-56
2022/01/27 04:50:51;;;;;;;;;;;-3.50;99.90;;;;;;4159190;28;19951;-59
2022/01/27 04:52:54;;;;;;;;;;;-3.50;99.90;;;;;;4160830;28;19967;-55
2022/01/27 04:55:03;;;;;;;;;;;-3.50;99.90;;;;;;4159091;28;19913;-57
2022/01/27 04:57:05;;;;;;;;;;;-3.50;99.90;;;;;;4160521;28;19943;-57
2022/01/27 04:59:14;;;;;;;;;;;-3.50;99.90;;;;;;4158794;28;20357;-53
2022/01/27 05:01:17;;;;;;;;;;;-3.50;99.90;;;;;;4159804;28;19971;-50
2022/01/27 05:03:30;;;;;;;;;;;-3.50;99.90;;;;;;4158661;28;19917;-57
2022/01/27 05:05:37;;;;;;;;;;;-3.50;99.90;;;;;;4160569;28;19975;-57
2022/01/27 05:07:39;;;;;;;;;;;-3.50;99.90;;;;;;4158704;28;20044;-56
2022/01/27 05:09:49;;;;;;;;;;;-3.50;99.90;;;;;;4159155;28;19913;-57
2022/01/27 05:11:55;;;;;;;;;;;-3.50;99.90;;;;;;4143243;28;19917;-57
2022/01/27 05:14:18;;;;;;;;;;;-3.50;99.90;;;;;;4143729;28;19913;-58
2022/01/27 05:16:19;;;;;;;;;;;-3.50;99.90;;;;;;4151780;28;19913;-60
2022/01/27 05:18:21;;;;;;;;;;;-3.50;99.90;;;;;;4160022;28;20439;-56
2022/01/27 05:20:22;;;;;;;;;;;-3.50;99.90;;;;;;4158484;28;19916;-55
2022/01/27 05:22:22;;;;;;;;;;;-3.50;99.90;;;;;;4159460;28;19975;-58
2022/01/27 05:24:23;;;;;;;;;;;-3.50;99.90;;;;;;4159342;28;20482;-57
2022/01/27 05:26:24;;;;;;;;;;;-3.50;99.90;;;;;;4158816;28;19923;-54
2022/01/27 05:28:25;;;;;;;;;;;-3.50;99.90;;;;;;4159591;28;19913;-58
2022/01/27 05:30:26;;;;;;;;;;;-3.40;99.90;;;;;;4157514;28;19924;-54
2022/01/27 05:32:27;;;;;;;;;;;-3.40;99.90;;;;;;4160605;28;20377;-56
2022/01/27 05:34:28;;;;;;;;;;;-3.40;99.90;;;;;;4158844;28;19924;-56
2022/01/27 05:36:29;;;;;;;;;;;-3.40;99.90;;;;;;4158773;28;19913;-54
2022/01/27 05:38:30;;;;;;;;;;;-3.50;99.90;;;;;;4158571;28;19925;-60
2022/01/27 05:40:31;;;;;;;;;;;-3.50;99.90;;;;;;4158991;28;19932;-57
2022/01/27 05:42:32;;;;;;;;;;;-3.50;99.90;;;;;;4158095;28;19913;-59
2022/01/27 05:44:32;;;;;;;;;;;-3.40;99.90;;;;;;4159379;28;19948;-58
2022/01/27 05:46:34;;;;;;;;;;;-3.50;99.90;;;;;;4151743;28;20726;-60
2022/01/27 05:48:35;;;;;;;;;;;-3.50;99.90;;;;;;4157492;28;19947;-57
2022/01/27 05:50:36;;;;;;;;;;;-3.50;99.90;;;;;;4158753;28;19909;-54
2022/01/27 05:52:37;;;;;;;;;;;-3.50;99.90;;;;;;4158389;28;19921;-55
2022/01/27 05:54:38;;;;;;;;;;;-3.50;99.90;;;;;;4157857;28;20331;-58
2022/01/27 05:56:39;;;;;;;;;;;-3.50;99.90;;;;;;4157502;28;19916;-51
2022/01/27 05:58:40;;;;;;;;;;;-3.50;99.90;;;;;;4158930;28;19943;-57
2022/01/27 06:00:41;;;;;;;;;;;-3.50;99.90;;;;;;4157599;28;19909;-58
2022/01/27 06:02:42;;;;;;;;;;;-3.50;99.90;;;;;;4157596;28;21178;-56
2022/01/27 06:04:43;;;;;;;;;;;-3.50;99.90;;;;;;4157857;28;19917;-57
2022/01/27 06:06:44;;;;;;;;;;;-3.50;99.90;;;;;;4158519;28;19948;-57
2022/01/27 06:08:47;;;;;;;;;;;-3.50;99.90;;;;;;4155048;28;19960;-56
2022/01/27 06:10:50;;;;;;;;;;;-3.50;99.90;;;;;;4157637;28;19959;-54
2022/01/27 06:12:52;;;;;;;;;;;-3.50;99.90;;;;;;4157885;28;19913;-57
2022/01/27 06:14:53;;;;;;;;;;;-3.50;99.90;;;;;;4159569;28;19913;-61
2022/01/27 06:16:54;;;;;;;;;;;-3.50;99.90;;;;;;4157992;28;20494;-61
2022/01/27 06:18:55;;;;;;;;;;;-3.50;99.90;;;;;;4158663;28;19917;-60
2022/01/27 06:21:00;;;;;;;;;;;-3.50;99.90;;;;;;4158450;28;19912;-50
2022/01/27 06:23:01;;;;;;;;;;;-3.50;99.90;;;;;;4158591;28;19917;-60
2022/01/27 06:25:03;;;;;;;;;;;-3.40;99.90;;;;;;4158014;28;19925;-52
2022/01/27 06:27:04;;;;;;;;;;;-3.40;99.90;;;;;;4159064;28;19913;-61
2022/01/27 06:29:05;;;;;;;;;;;-3.40;99.90;;;;;;4157971;28;19920;-59
2022/01/27 06:31:06;;;;;;;;;;;-3.40;99.90;;;;;;4158143;28;19913;-56
2022/01/27 06:33:07;;;;;;;;;;;-3.40;99.90;;;;;;4159051;28;20642;-54
2022/01/27 06:35:08;;;;;;;;;;;-3.40;99.90;;;;;;4157677;28;19917;-60
2022/01/27 06:37:11;;;;;;;;;;;-3.40;99.90;;;;;;4159239;28;19979;-61
2022/01/27 06:39:11;;;;;;;;;;;-3.30;99.90;;;;;;4158094;28;19913;-58
2022/01/27 06:41:13;;;;;;;;;;;-3.30;99.90;;;;;;4158631;28;19928;-55
2022/01/27 06:43:15;;;;;;;;;;;-3.30;99.90;;;;;;4156574;28;20407;-64
2022/01/27 06:45:15;;;;;;;;;;;-3.30;99.90;;;;;;4149210;28;19987;-59
2022/01/27 06:47:16;;;;;;;;;;;-3.30;99.90;;;;;;4156862;28;20436;-59
2022/01/27 06:49:18;;;;;;;;;;;-3.30;99.90;;;;;;4158342;28;19917;-59
2022/01/27 06:51:19;;;;;;;;;;;-3.30;99.90;;;;;;4157124;28;19913;-61
2022/01/27 06:53:20;;;;;;;;;;;-3.30;99.90;;;;;;4158138;28;19920;-56
2022/01/27 06:55:21;;;;;;;;;;;-3.20;99.90;;;;;;4157593;28;19955;-56
2022/01/27 06:57:23;;;;;;;;;;;-3.20;99.90;;;;;;4158131;28;19990;-57
2022/01/27 06:59:24;;;;;;;;;;;-3.10;99.90;;;;;;4157167;28;19956;-56
2022/01/27 07:01:24;;;;;;;;;;;-3.10;99.90;;;;;;4157356;28;19988;-58
2022/01/27 07:03:25;;;;;;;;;;;-3.10;99.90;;;;;;4158577;28;20358;-58
2022/01/27 07:05:26;;;;;;;;;;;-3.10;99.90;;;;;;4173244;28;19920;-56
2022/01/27 07:07:27;;;;;;;;;;;-3.10;99.90;;;;;;4158675;28;20235;-55
2022/01/27 07:09:28;;;;;;;;;;;-3.10;99.90;;;;;;4157852;28;19978;-59
2022/01/27 07:11:29;;;;;;;;;;;-3.00;99.90;;;;;;4157370;28;20357;-63
2022/01/27 07:13:30;;;;;;;;;;;-3.00;99.90;;;;;;4156566;28;19913;-54
2022/01/27 07:15:32;;;;;;;;;;;-3.00;99.90;;;;;;4157724;28;19917;-57
2022/01/27 07:17:33;;;;;;;;;;;-2.90;99.90;;;;;;4157850;28;20331;-56
2022/01/27 07:19:34;;;;;;;;;;;-2.90;99.90;;;;;;4157569;28;19913;-57
2022/01/27 07:21:35;;;;;;;;;;;-2.80;99.90;;;;;;4156921;28;19917;-55
2022/01/27 07:23:36;;;;;;;;;;;-2.80;99.90;;;;;;4157076;28;20415;-57
2022/01/27 07:25:37;;;;;;;;;;;-2.80;99.90;;;;;;4162987;28;19920;-61
2022/01/27 07:27:38;;;;;;;;;;;-2.80;99.90;;;;;;4174117;28;19974;-57
2022/01/27 07:29:39;;;;;;;;;;;-2.80;99.90;;;;;;4164735;28;19917;-57
2022/01/27 07:31:40;;;;;;;;;;;-2.80;99.90;;;;;;4165169;28;19920;-59
2022/01/27 07:33:41;;;;;;;;;;;-2.80;99.90;;;;;;4174771;28;20399;-64
2022/01/27 07:35:42;;;;;;;;;;;-2.90;99.90;;;;;;4160362;28;20412;-57
2022/01/27 07:37:44;;;;;;;;;;;-2.90;99.90;;;;;;4158563;28;20020;-57
2022/01/27 07:39:45;;;;;;;;;;;-2.90;99.90;;;;;;4157072;28;19959;-56
2022/01/27 07:41:46;;;;;;;;;;;-2.90;99.90;;;;;;4140281;28;20491;-55
2022/01/27 07:43:47;;;;;;;;;;;-2.90;99.90;;;;;;4156989;28;19913;-61
2022/01/27 07:45:49;;;;;;;;;;;-2.90;99.90;;;;;;4158527;28;19948;-59
2022/01/27 07:47:50;;;;;;;;;;;-2.90;99.90;;;;;;4157535;28;19930;-53
2022/01/27 07:49:51;;;;;;;;;;;-2.90;99.90;;;;;;4158228;28;19976;-58
2022/01/27 07:51:52;;;;;;;;;;;-2.90;99.90;;;;;;4156150;28;19909;-57
2022/01/27 07:53:53;;;;;;;;;;;-2.80;99.90;;;;;;4158211;28;19917;-63
2022/01/27 07:55:54;;;;;;;;;;;-2.80;99.90;;;;;;4157245;28;19909;-62
2022/01/27 07:57:55;;;;;;;;;;;-2.80;99.90;;;;;;4157169;28;19963;-57
2022/01/27 07:59:56;;;;;;;;;;;-2.90;99.90;;;;;;4157009;28;19924;-58
2022/01/27 08:01:58;;;;;;;;;;;-2.80;99.90;;;;;;4156734;28;19924;-56
2022/01/27 08:03:59;;;;;;;;;;;-2.70;99.90;;;;;;4157139;28;20211;-57
2022/01/27 08:05:59;;;;;;;;;;;-2.70;99.90;;;;;;4155989;28;19927;-57
2022/01/27 08:08:00;;;;;;;;;;;-2.70;99.90;;;;;;4151745;28;19917;-56
2022/01/27 08:10:01;;;;;;;;;;;-2.60;99.90;;;;;;4148829;28;19932;-59
2022/01/27 08:12:02;;;;;;;;;;;-2.60;99.90;;;;;;4144479;28;20342;-55
2022/01/27 08:14:03;;;;;;;;;;;-2.50;99.90;;;;;;4151305;28;19963;-57
2022/01/27 08:16:04;;;;;;;;;;;-2.50;99.90;;;;;;4157121;28;19958;-55
2022/01/27 08:18:05;;;;;;;;;;;-2.40;99.90;;;;;;4157478;28;19986;-54
2022/01/27 08:20:07;;;;;;;;;;;-2.30;99.90;;;;;;4161292;28;20300;-55
2022/01/27 08:22:08;;;;;;;;;;;-2.30;99.90;;;;;;4159776;28;19944;-57
2022/01/27 08:24:10;;;;;;;;;;;-2.20;99.90;;;;;;4160592;28;19921;-57
2022/01/27 08:26:15;;;;;;;;;;;-2.30;99.90;;;;;;4159858;28;19972;-54
2022/01/27 08:28:26;;;;;;;;;;;-2.20;99.90;;;;;;4158867;28;20093;-53
2022/01/27 08:30:34;;;;;;;;;;;-2.20;99.90;;;;;;4156448;28;19982;-56
2022/01/27 08:34:45;;;;;;;;;;;-2.00;99.90;;;;;;4158100;28;20357;-54
2022/01/27 08:36:46;;;;;;;;;;;-1.80;99.90;;;;;;4166721;28;19913;-52
2022/01/27 08:38:47;;;;;;;;;;;-1.80;99.90;;;;;;4141518;28;19922;-53
2022/01/27 08:40:48;;;;;;;;;;;-1.70;99.90;;;;;;4168544;28;19967;-58
2022/01/27 08:42:49;;;;;;;;;;;-1.60;99.90;;;;;;4173103;28;19917;-56
2022/01/27 08:44:50;;;;;;;;;;;-1.70;99.90;;;;;;4153514;28;19965;-57
2022/01/27 08:46:51;;;;;;;;;;;-1.80;99.90;;;;;;4155894;28;19929;-57
2022/01/27 08:48:52;;;;;;;;;;;-2.00;99.90;;;;;;4137617;28;19933;-56
2022/01/27 08:50:59;;;;;;;;;;;-2.10;99.90;;;;;;4155270;28;20400;-55
2022/01/27 08:53:00;;;;;;;;;;;-2.10;99.90;;;;;;4156944;28;19925;-51
2022/01/27 08:55:02;;;;;;;;;;;-2.10;99.90;;;;;;4159299;28;19917;-58
2022/01/27 08:57:03;;;;;;;;;;;-2.20;99.90;;;;;;4153622;28;19921;-58
2022/01/27 08:59:04;;;;;;;;;;;-2.10;99.90;;;;;;4155148;28;19929;-57
2022/01/27 09:01:05;;;;;;;;;;;-2.10;99.90;;;;;;4153151;28;19913;-57
2022/01/27 09:03:06;;;;;;;;;;;-2.10;99.90;;;;;;4154208;28;20018;-59
2022/01/27 09:05:08;;;;;;;;;;;-2.10;99.90;;;;;;4154268;28;21691;-59
2022/01/27 09:07:08;;;;;;;;;;;-2.10;99.90;;;;;;4154744;28;20436;-58
2022/01/27 09:09:09;;;;;;;;;;;-2.20;99.90;;;;;;4158285;28;19967;-55
2022/01/27 09:11:12;;;;;;;;;;;-2.20;99.90;;;;;;4154626;28;20456;-58
2022/01/27 09:13:14;;;;;;;;;;;-2.20;99.90;;;;;;4154724;28;19983;-58
2022/01/27 09:15:15;;;;;;;;;;;-2.20;99.90;;;;;;4153341;28;20352;-56
2022/01/27 09:17:17;;;;;;;;;;;-2.10;99.90;;;;;;4154311;28;19924;-58
2022/01/27 09:19:19;;;;;;;;;;;-2.10;99.90;;;;;;4154477;28;19945;-52
2022/01/27 09:21:24;;;;;;;;;;;-2.10;99.90;;;;;;4154444;28;19960;-57
2022/01/27 09:23:25;;;;;;;;;;;-2.00;99.90;;;;;;4155649;28;20406;-53
2022/01/27 09:25:31;;;;;;;;;;;-2.00;99.90;;;;;;4158279;28;19925;-58
2022/01/27 09:27:32;;;;;;;;;;;-2.00;99.90;;;;;;4152469;28;19921;-61
2022/01/27 09:29:34;;;;;;;;;;;-2.00;99.90;;;;;;4155728;28;19921;-59
2022/01/27 09:31:35;;;;;;;;;;;-1.90;99.90;;;;;;4152831;28;19921;-55
2022/01/27 09:33:35;;;;;;;;;;;-1.80;99.90;;;;;;4155127;28;20036;-56
2022/01/27 09:35:36;;;;;;;;;;;-1.80;99.90;;;;;;4135049;28;20436;-57
2022/01/27 09:37:38;;;;;;;;;;;-1.70;99.90;;;;;;4156564;28;19917;-58
2022/01/27 09:39:39;;;;;;;;;;;-1.70;99.90;;;;;;4168832;28;19955;-58
2022/01/27 09:41:41;;;;;;;;;;;-1.70;99.90;;;;;;4174890;28;19962;-59
2022/01/27 09:43:42;;;;;;;;;;;-1.80;99.90;;;;;;4165090;28;19959;-58
2022/01/27 09:45:43;;;;;;;;;;;-1.80;99.90;;;;;;4158410;28;19960;-62
2022/01/27 09:47:53;;;;;;;;;;;-1.80;99.90;;;;;;4141428;28;19926;-60
2022/01/27 09:50:04;;;;;;;;;;;-1.80;99.90;;;;;;4158337;28;19910;-59
2022/01/27 09:52:05;;;;;;;;;;;-1.60;99.90;;;;;;4159390;28;20373;-57
2022/01/27 09:54:06;;;;;;;;;;;-1.40;99.90;;;;;;4158643;28;19984;-60
2022/01/27 09:56:07;;;;;;;;;;;-1.40;99.90;;;;;;4159546;28;20055;-59
2022/01/27 09:58:10;;;;;;;;;;;-1.30;99.90;;;;;;4158201;28;19913;-58
2022/01/27 10:00:11;;;;;;;;;;;-1.40;99.90;;;;;;4158390;28;19995;-58
2022/01/27 10:02:21;;;;;;;;;;;-1.40;99.90;;;;;;4167919;28;20437;-56
2022/01/27 10:04:23;;;;;;;;;;;-1.40;99.90;;;;;;4175349;28;19979;-56
2022/01/27 10:06:32;;;;;;;;;;;-1.40;99.90;;;;;;4160931;28;19987;-56
2022/01/27 10:08:35;;;;;;;;;;;-1.50;99.90;;;;;;4159681;28;19913;-59
2022/01/27 10:10:37;;;;;;;;;;;-1.40;99.90;;;;;;4158386;28;19992;-59
2022/01/27 10:12:42;;;;;;;;;;;-1.30;99.90;;;;;;4141161;28;19929;-57
2022/01/27 10:14:43;;;;;;;;;;;-1.30;99.90;;;;;;4158230;28;19963;-58
2022/01/27 10:16:44;;;;;;;;;;;-1.30;99.90;;;;;;4158477;28;19986;-55
2022/01/27 10:18:45;;;;;;;;;;;-1.30;99.90;;;;;;4150464;28;19910;-56
2022/01/27 10:20:51;;;;;;;;;;;-1.40;99.90;;;;;;4153092;28;19913;-55
2022/01/27 10:23:18;;;;;;;;;;;-1.40;99.90;;;;;;4158040;28;19913;-52
2022/01/27 10:25:21;;;;;;;;;;;-1.30;99.90;;;;;;4154904;28;19921;-55
2022/01/27 10:27:29;;;;;;;;;;;-1.30;99.90;;;;;;4157306;28;19913;-58
2022/01/27 10:29:47;;;;;;;;;;;-1.30;99.90;;;;;;4158539;28;19987;-53
2022/01/27 10:31:59;;;;;;;;;;;-1.30;99.90;;;;;;4154832;28;19984;-63
2022/01/27 10:34:02;;;;;;;;;;;-1.30;99.90;;;;;;4151777;28;19917;-54
2022/01/27 10:36:15;;;;;;;;;;;-1.30;99.90;;;;;;4157037;28;20454;-58
2022/01/27 10:38:18;;;;;;;;;;;-1.40;99.90;;;;;;4158847;28;19909;-57
2022/01/27 10:40:27;;;;;;;;;;;-1.40;99.90;;;;;;4157341;28;19971;-56
2022/01/27 10:42:27;;;;;;;;;;;-1.40;99.90;;;;;;4158753;28;19976;-57
2022/01/27 10:44:32;;;;;;;;;;;-1.40;99.90;;;;;;4157552;28;20302;-64
2022/01/27 10:46:34;;;;;;;;;;;-1.30;99.90;;;;;;4156706;28;19921;-58
2022/01/27 10:48:40;;;;;;;;;;;-1.30;99.90;;;;;;4157990;28;19925;-58
2022/01/27 10:50:51;;;;;;;;;;;-1.30;99.90;;;;;;4156666;28;19914;-62
2022/01/27 10:52:57;;;;;;;;;;;-1.30;99.90;;;;;;4157866;28;20320;-58
2022/01/27 10:55:00;;;;;;;;;;;-1.30;99.90;;;;;;4157805;28;19913;-57
2022/01/27 10:57:06;;;;;;;;;;;-1.20;99.90;;;;;;4157957;28;19913;-58
2022/01/27 10:59:11;;;;;;;;;;;-1.20;99.90;;;;;;4157337;28;19913;-61
2022/01/27 11:01:20;;;;;;;;;;;-1.10;99.90;;;;;;4158125;28;19921;-55
2022/01/27 11:03:21;;;;;;;;;;;-1.10;99.90;;;;;;4157202;28;19921;-63
2022/01/27 11:05:23;;;;;;;;;;;-1.10;99.90;;;;;;4174263;28;20279;-62
2022/01/27 11:07:25;;;;;;;;;;;-1.10;99.90;;;;;;4173818;28;19916;-56
2022/01/27 11:09:27;;;;;;;;;;;-1.10;99.90;;;;;;4166574;28;19913;-63
2022/01/27 11:11:28;;;;;;;;;;;-1.10;99.90;;;;;;4149828;28;20438;-58
2022/01/27 11:13:29;;;;;;;;;;;-1.00;99.90;;;;;;4157748;28;19913;-57
2022/01/27 11:15:30;;;;;;;;;;;-1.00;99.90;;;;;;4155748;28;19917;-51
2022/01/27 11:17:35;;;;;;;;;;;-1.00;99.90;;;;;;4160746;28;19925;-60
2022/01/27 11:22:58;;;;;;;;;;;-0.90;99.90;;;;;;4126179;28;19967;-63
2022/01/27 11:26:57;;;;;;;;;;;-0.80;99.90;;;;;;4154558;28;19925;-60
2022/01/27 11:28:58;;;;;;;;;;;-0.80;99.90;;;;;;4156954;28;19932;-66
2022/01/27 11:31:03;;;;;;;;;;;-0.80;99.90;;;;;;4158313;28;19924;-60
2022/01/27 11:33:04;;;;;;;;;;;-0.90;99.90;;;;;;4156674;28;20052;-64
2022/01/27 11:35:16;;;;;;;;;;;-1.00;99.90;;;;;;4158129;28;20404;-63
2022/01/27 11:37:28;;;;;;;;;;;-1.00;99.90;;;;;;4156917;28;20369;-55
2022/01/27 11:39:51;;;;;;;;;;;-1.00;99.90;;;;;;4156900;28;20341;-57
2022/01/27 11:41:53;;;;;;;;;;;-1.10;99.90;;;;;;4157106;28;19909;-56
2022/01/27 11:44:14;;;;;;;;;;;-1.00;99.90;;;;;;4157905;28;20419;-56
2022/01/27 11:46:18;;;;;;;;;;;-1.00;99.90;;;;;;4156075;28;20611;-59
2022/01/27 11:48:23;;;;;;;;;;;-1.10;99.90;;;;;;4157706;28;19974;-63
2022/01/27 11:50:37;;;;;;;;;;;-1.10;99.90;;;;;;4155839;28;19921;-55
2022/01/27 11:52:48;;;;;;;;;;;-1.10;99.90;;;;;;4156698;28;19921;-58
2022/01/27 11:54:49;;;;;;;;;;;-1.20;99.90;;;;;;4153361;28;19977;-63
2022/01/27 11:56:50;;;;;;;;;;;-1.20;99.90;;;;;;4157229;28;20011;-57
2022/01/27 11:58:52;;;;;;;;;;;-1.20;99.90;;;;;;4155718;28;19914;-57
2022/01/27 12:01:02;;;;;;;;;;;-1.20;99.90;;;;;;4157638;28;19917;-57
2022/01/27 12:03:03;;;;;;;;;;;-1.10;99.90;;;;;;4156835;28;19964;-63
2022/01/27 12:05:13;;;;;;;;;;;-1.10;99.90;;;;;;4156836;28;19921;-57
2022/01/27 12:07:14;;;;;;;;;;;-1.10;99.90;;;;;;4154894;28;20278;-57
2022/01/27 12:09:18;;;;;;;;;;;-1.10;99.90;;;;;;4157824;28;19920;-59
2022/01/27 12:11:37;;;;;;;;;;;-1.10;99.90;;;;;;4156145;28;19975;-59
2022/01/27 12:13:43;;;;;;;;;;;-1.00;99.90;;;;;;4157406;28;19917;-58
2022/01/27 12:16:07;;;;;;;;;;;-1.10;99.90;;;;;;4155774;28;20336;-61
2022/01/27 12:18:28;;;;;;;;;;;-1.10;99.90;;;;;;4141997;28;20069;-58
2022/01/27 12:20:42;;;;;;;;;;;-1.10;99.90;;;;;;4145426;28;19987;-60
2022/01/27 12:22:46;;;;;;;;;;;-1.20;99.90;;;;;;4157646;28;19959;-57
2022/01/27 12:24:51;;;;;;;;;;;-1.10;99.90;;;;;;4155248;28;20772;-58
2022/01/27 12:27:03;;;;;;;;;;;-1.10;99.90;;;;;;4156986;28;19972;-59
2022/01/27 12:29:04;;;;;;;;;;;-1.10;99.90;;;;;;4156355;28;19913;-57
2022/01/27 12:31:05;;;;;;;;;;;-1.10;99.90;;;;;;4157034;28;19952;-56
2022/01/27 12:33:06;;;;;;;;;;;-1.10;99.90;;;;;;4155770;28;19909;-58
2022/01/27 12:35:08;;;;;;;;;;;-1.00;99.90;;;;;;4156818;28;19913;-54
2022/01/27 12:37:10;;;;;;;;;;;-1.00;99.90;;;;;;4156358;28;19909;-60
2022/01/27 12:39:18;;;;;;;;;;;-1.00;99.90;;;;;;4156838;28;19944;-60
2022/01/27 12:41:19;;;;;;;;;;;-0.90;99.90;;;;;;4156183;28;19913;-58
2022/01/27 12:43:21;;;;;;;;;;;-0.90;99.90;;;;;;4156344;28;19913;-53
2022/01/27 12:45:27;;;;;;;;;;;-0.90;99.90;;;;;;4155632;28;19983;-52